Time;durP1;ratioP1;P1;durP2;ratioP2;P2;SDS_P1;SDS_P2;PMS_P1;PMS_P2;Temp;Humidity;BMP_temperature;BMP_pressure;BME280_temperature;BME280_humidity;BME280_pressure;Samples;Min_cycle;Max_cycle;Signal;HPM_P1;HPM_P2
2021/05/13 00:02:11;;;;;;;7.30;4.53;;;;;;;13.81;78.98;98253.97;5094531;28;20486;-67
2021/05/13 00:04:44;;;;;;;6.78;5.13;;;;;;;13.77;79.24;98248.09;5094531;28;20060;-69
2021/05/13 00:07:16;;;;;;;8.52;5.50;;;;;;;13.66;79.47;98239.13;5094442;28;20088;-67
2021/05/13 00:09:49;;;;;;;7.32;5.00;;;;;;;13.53;79.51;98240.50;5094317;28;20052;-67
2021/05/13 00:12:36;;;;;;;7.88;4.90;;;;;;;13.50;80.08;98240.59;5094375;28;20493;-68
2021/05/13 00:15:12;;;;;;;7.18;4.97;;;;;;;13.50;79.78;98243.16;5094357;28;20089;-69
2021/05/13 00:17:45;;;;;;;7.20;5.13;;;;;;;13.56;80.01;98237.78;5094329;28;20068;-69
2021/05/13 00:20:22;;;;;;;8.65;4.90;;;;;;;13.65;79.77;98238.31;5094157;28;20040;-67
2021/05/13 00:22:55;;;;;;;8.40;5.78;;;;;;;13.69;79.72;98229.63;5094184;28;20139;-69
2021/05/13 00:25:28;;;;;;;6.80;5.07;;;;;;;13.87;79.97;98233.22;5094492;28;20051;-68
2021/05/13 00:28:00;;;;;;;7.80;5.40;;;;;;;13.82;79.96;98235.16;5094153;28;20052;-66
2021/05/13 00:30:34;;;;;;;8.70;5.57;;;;;;;13.91;80.09;98224.53;5093809;28;20051;-67
2021/05/13 00:33:06;;;;;;;7.82;5.13;;;;;;;14.03;80.01;98218.94;5094241;28;20051;-70
2021/05/13 00:35:38;;;;;;;7.88;5.20;;;;;;;14.05;79.87;98199.19;5094070;28;20488;-67
2021/05/13 00:38:10;;;;;;;6.95;5.00;;;;;;;14.13;79.64;98204.88;5094019;28;20489;-69
2021/05/13 00:40:42;;;;;;;7.45;4.97;;;;;;;14.04;79.49;98197.50;5093970;28;20052;-66
2021/05/13 00:43:12;;;;;;;8.15;5.28;;;;;;;13.88;79.20;98201.56;5093830;28;20497;-69
2021/05/13 00:45:44;;;;;;;7.17;4.93;;;;;;;13.83;79.71;98206.03;5094137;28;20052;-67
2021/05/13 00:48:16;;;;;;;8.20;5.45;;;;;;;13.88;79.87;98199.00;5092998;28;20296;-67
2021/05/13 00:50:48;;;;;;;7.15;5.18;;;;;;;14.02;79.80;98201.88;5093609;28;20051;-68
2021/05/13 00:53:20;;;;;;;7.63;5.53;;;;;;;14.05;79.94;98201.75;5093754;28;20139;-68
2021/05/13 00:55:52;;;;;;;7.60;5.47;;;;;;;13.89;79.60;98200.69;5075943;28;20097;-68
2021/05/13 00:58:27;;;;;;;9.07;6.45;;;;;;;13.64;80.16;98202.47;5093870;28;20101;-66
2021/05/13 01:01:05;;;;;;;8.77;5.97;;;;;;;13.57;80.73;98201.88;5093753;28;20044;-67
2021/05/13 01:03:36;;;;;;;8.50;5.85;;;;;;;13.51;80.96;98207.19;5093658;28;20056;-70
2021/05/13 01:06:11;;;;;;;8.15;6.03;;;;;;;13.50;81.56;98208.09;5094070;28;20130;-69
2021/05/13 01:08:43;;;;;;;8.90;6.07;;;;;;;13.54;81.87;98211.38;5093524;28;20073;-69
2021/05/13 01:11:15;;;;;;;9.32;5.78;;;;;;;13.64;82.05;98202.47;5097361;28;20493;-69
2021/05/13 01:13:58;;;;;;;9.45;5.80;;;;;;;13.66;82.03;98205.81;5097725;28;20048;-69
2021/05/13 01:16:44;;;;;;;8.82;6.28;;;;;;;13.67;82.33;98204.94;5097694;28;20101;-69
2021/05/13 01:19:21;;;;;;;8.57;5.85;;;;;;;13.70;82.23;98199.69;5097378;28;20056;-66
2021/05/13 01:21:54;;;;;;;8.48;5.70;;;;;;;13.74;82.37;98207.22;5097622;28;20052;-67
2021/05/13 01:24:26;;;;;;;8.98;6.00;;;;;;;13.78;82.33;98213.06;5097468;28;20135;-69
2021/05/13 01:26:59;;;;;;;8.35;5.97;;;;;;;13.75;82.38;98206.31;5097540;28;20055;-69
2021/05/13 01:29:31;;;;;;;9.32;6.07;;;;;;;13.70;82.67;98200.50;5097524;28;20054;-69
2021/05/13 01:32:03;;;;;;;8.82;5.80;;;;;;;13.81;82.59;98207.81;5097087;28;20048;-70
2021/05/13 01:34:32;;;;;;;8.02;5.40;;;;;;;13.79;82.70;98209.59;5097454;28;20056;-68
2021/05/13 01:37:05;;;;;;;9.25;5.93;;;;;;;13.81;82.73;98207.81;5097296;28;20072;-69
2021/05/13 01:39:39;;;;;;;8.20;5.93;;;;;;;13.87;82.60;98208.41;5097588;28;20074;-69
2021/05/13 01:42:14;;;;;;;9.88;5.47;;;;;;;13.89;82.89;98195.56;5097557;28;20056;-67
2021/05/13 01:44:45;;;;;;;7.47;5.07;;;;;;;13.93;82.56;98186.84;5097161;28;20082;-67
2021/05/13 01:47:14;;;;;;;9.07;5.43;;;;;;;13.97;82.36;98180.69;5097071;28;20054;-69
2021/05/13 01:49:43;;;;;;;7.10;5.28;;;;;;;14.02;82.56;98176.22;5096521;28;20044;-69
2021/05/13 01:52:13;;;;;;;7.73;5.10;;;;;;;14.01;82.58;98180.50;5096677;28;20093;-67
2021/05/13 01:54:45;;;;;;;8.73;5.35;;;;;;;13.99;82.46;98184.03;5096969;28;20135;-68
2021/05/13 01:57:17;;;;;;;7.68;5.40;;;;;;;13.98;82.27;98195.19;5096927;28;20482;-68
2021/05/13 01:59:46;;;;;;;10.18;6.40;;;;;;;13.97;82.55;98193.50;5096798;28;20052;-66
2021/05/13 02:02:15;;;;;;;9.52;5.93;;;;;;;13.94;82.52;98196.22;5096871;28;20067;-66
2021/05/13 02:04:45;;;;;;;8.35;5.97;;;;;;;13.84;82.75;98192.31;5096459;28;20052;-68
2021/05/13 02:07:15;;;;;;;8.68;5.65;;;;;;;13.78;83.18;98183.13;5096749;28;20417;-67
2021/05/13 02:09:47;;;;;;;10.02;6.00;;;;;;;13.90;83.85;98176.69;5096612;28;20489;-66
2021/05/13 02:12:19;;;;;;;11.68;6.75;;;;;;;13.98;83.72;98195.19;5096288;28;20047;-66
2021/05/13 02:14:51;;;;;;;10.73;6.20;;;;;;;13.90;84.37;98203.19;5078476;28;20486;-65
2021/05/13 02:17:24;;;;;;;10.98;6.60;;;;;;;13.60;84.47;98208.63;5096539;28;20052;-65
2021/05/13 02:19:55;;;;;;;10.43;6.38;;;;;;;13.41;84.80;98193.88;5096061;28;20101;-65
2021/05/13 02:22:29;;;;;;;8.95;5.93;;;;;;;13.32;85.13;98199.34;5097042;28;20093;-65
2021/05/13 02:25:01;;;;;;;10.25;6.40;;;;;;;13.27;85.64;98203.78;5096129;28;20048;-65
2021/05/13 02:27:33;;;;;;;9.68;6.32;;;;;;;13.23;85.79;98189.44;5096391;28;20121;-66
2021/05/13 02:30:07;;;;;;;10.77;6.45;;;;;;;13.26;86.17;98197.00;5096057;28;20074;-66
2021/05/13 02:32:37;;;;;;;10.32;6.90;;;;;;;13.29;86.33;98184.06;5096275;28;20048;-65
2021/05/13 02:35:10;;;;;;;11.70;6.82;;;;;;;13.35;86.53;98178.75;5096055;28;20052;-65
2021/05/13 02:37:44;;;;;;;10.95;6.20;;;;;;;13.44;86.43;98175.84;5096223;28;20055;-65
2021/05/13 02:40:17;;;;;;;10.20;6.68;;;;;;;13.55;86.88;98179.75;5096135;28;20047;-65
2021/05/13 02:43:06;;;;;;;10.75;6.45;;;;;;;13.64;86.81;98184.53;5074071;28;20070;-65
2021/05/13 02:45:38;;;;;;;11.45;6.57;;;;;;;13.71;86.82;98180.84;5073476;28;20036;-64
2021/05/13 02:48:07;;;;;;;10.85;6.63;;;;;;;13.74;86.92;98175.59;5073125;28;20110;-65
2021/05/13 02:50:42;;;;;;;10.95;6.72;;;;;;;13.73;86.57;98161.09;5073389;28;20130;-64
2021/05/13 02:53:13;;;;;;;9.57;6.45;;;;;;;13.78;86.89;98161.78;5073665;28;20057;-64
2021/05/13 02:55:45;;;;;;;9.93;6.50;;;;;;;13.69;86.46;98170.66;5073803;28;20114;-64
2021/05/13 02:58:18;;;;;;;9.82;6.55;;;;;;;13.61;86.65;98162.41;5073267;28;20395;-64
2021/05/13 03:00:54;;;;;;;9.05;6.35;;;;;;;13.62;86.73;98161.53;5073166;28;20048;-64
2021/05/13 03:03:27;;;;;;;8.88;6.07;;;;;;;13.66;86.76;98168.19;5073386;28;20044;-65
2021/05/13 03:06:00;;;;;;;9.18;6.00;;;;;;;13.62;86.36;98160.69;5073402;28;20056;-64
2021/05/13 03:08:30;;;;;;;8.55;5.95;;;;;;;13.52;86.59;98164.47;5073231;28;20437;-64
2021/05/13 03:11:02;;;;;;;9.57;5.53;;;;;;;13.41;86.77;98163.13;5073100;28;20430;-64
2021/05/13 03:13:34;;;;;;;9.45;5.60;;;;;;;13.47;86.77;98151.00;5073528;28;20414;-65
2021/05/13 03:16:06;;;;;;;11.77;6.25;;;;;;;13.52;86.75;98154.22;5073147;28;20047;-64
2021/05/13 03:18:39;;;;;;;10.32;6.53;;;;;;;13.56;86.82;98150.63;5073168;28;20048;-65
2021/05/13 03:21:15;;;;;;;9.68;6.05;;;;;;;13.61;87.05;98138.50;5074606;28;20439;-64
2021/05/13 03:23:52;;;;;;;10.48;6.60;;;;;;;13.67;87.20;98143.41;5075091;28;20106;-64
2021/05/13 03:26:39;;;;;;;9.05;6.07;;;;;;;13.73;87.07;98143.16;5075031;28;20087;-64
2021/05/13 03:29:11;;;;;;;9.07;6.03;;;;;;;13.81;86.83;98143.72;5074948;28;20138;-64
2021/05/13 03:31:43;;;;;;;8.85;5.70;;;;;;;13.81;86.63;98144.56;5074116;28;20045;-65
2021/05/13 03:34:12;;;;;;;10.20;6.82;;;;;;;13.67;86.92;98151.94;5074753;28;20048;-64
2021/05/13 03:36:44;;;;;;;9.38;6.35;;;;;;;13.70;86.98;98153.56;5074787;28;20052;-63
2021/05/13 03:39:17;;;;;;;9.98;6.10;;;;;;;13.60;86.56;98152.22;5074755;28;20080;-63
2021/05/13 03:41:50;;;;;;;10.23;6.57;;;;;;;13.42;86.68;98136.63;5074645;28;20127;-63
2021/05/13 03:44:22;;;;;;;11.05;6.30;;;;;;;13.35;86.88;98122.38;5074679;28;20082;-63
2021/05/13 03:46:54;;;;;;;8.95;5.63;;;;;;;13.38;87.01;98121.44;5074723;28;20071;-64
2021/05/13 03:49:27;;;;;;;8.70;6.03;;;;;;;13.49;87.07;98123.56;5087848;28;20056;-64
2021/05/13 03:51:59;;;;;;;12.35;7.05;;;;;;;13.63;87.21;98126.47;5094429;28;20048;-63
2021/05/13 03:54:32;;;;;;;9.93;6.82;;;;;;;13.68;87.31;98134.81;5094410;28;20155;-64
2021/05/13 03:57:05;;;;;;;11.65;7.28;;;;;;;13.53;87.04;98135.41;5094587;28;20059;-64
2021/05/13 03:59:39;;;;;;;9.38;6.30;;;;;;;13.40;87.27;98130.72;5094375;28;20044;-63
2021/05/13 04:02:21;;;;;;;10.55;6.00;;;;;;;13.44;87.22;98141.69;5094526;28;20047;-63
2021/05/13 04:04:53;;;;;;;11.10;7.03;;;;;;;13.48;87.26;98137.28;5094846;28;20064;-63
2021/05/13 04:07:28;;;;;;;9.00;6.28;;;;;;;13.36;87.27;98129.16;5094434;28;20040;-63
2021/05/13 04:10:04;;;;;;;10.93;6.60;;;;;;;13.37;87.50;98125.72;5094768;28;20094;-63
2021/05/13 04:12:39;;;;;;;8.88;6.47;;;;;;;13.40;87.37;98140.13;5094064;28;20137;-63
2021/05/13 04:15:12;;;;;;;13.02;7.10;;;;;;;13.44;87.76;98141.69;5094370;28;20086;-63
2021/05/13 04:17:44;;;;;;;10.88;6.57;;;;;;;13.36;87.61;98141.16;5094257;28;20055;-63
2021/05/13 04:20:17;;;;;;;10.15;6.85;;;;;;;13.26;87.52;98134.69;5094003;28;20056;-63
2021/05/13 04:22:49;;;;;;;9.57;7.00;;;;;;;13.22;87.62;98126.25;5094059;28;20052;-63
2021/05/13 04:25:22;;;;;;;10.68;7.68;;;;;;;13.22;87.68;98143.38;5094149;28;20062;-64
2021/05/13 04:27:54;;;;;;;11.85;7.07;;;;;;;13.13;87.81;98136.84;5094188;28;20056;-64
2021/05/13 04:30:26;;;;;;;11.57;7.22;;;;;;;13.08;88.00;98127.63;5094110;28;20052;-64
2021/05/13 04:32:58;;;;;;;12.63;7.65;;;;;;;13.11;87.99;98123.25;5093698;28;20482;-63
2021/05/13 04:35:30;;;;;;;14.07;9.05;;;;;;;13.06;88.04;98109.78;5093859;28;20048;-63
2021/05/13 04:37:58;;;;;;;11.73;7.65;;;;;;;13.11;88.06;98113.00;5094007;28;20131;-63
2021/05/13 04:40:31;;;;;;;12.13;7.88;;;;;;;13.19;88.03;98116.16;5093849;28;20040;-63
2021/05/13 04:43:01;;;;;;;12.65;8.27;;;;;;;13.18;88.35;98113.63;5093765;28;20121;-63
2021/05/13 04:45:33;;;;;;;11.70;7.47;;;;;;;13.18;88.23;98122.16;5094204;28;20123;-63
2021/05/13 04:48:10;;;;;;;14.25;7.13;;;;;;;13.21;88.50;98109.22;5093000;28;20052;-63
2021/05/13 04:50:42;;;;;;;11.85;7.35;;;;;;;13.26;88.42;98107.34;5093625;28;20089;-63
2021/05/13 04:53:12;;;;;;;11.10;7.07;;;;;;;13.31;88.32;98105.44;5093681;28;20394;-63
2021/05/13 04:55:46;;;;;;;11.95;7.57;;;;;;;13.30;88.04;98106.31;5094025;28;20056;-63
2021/05/13 04:58:17;;;;;;;10.68;7.13;;;;;;;13.35;88.32;98106.16;5093779;28;20123;-63
2021/05/13 05:00:50;;;;;;;10.65;7.07;;;;;;;13.31;88.37;98110.56;5093780;28;20075;-63
2021/05/13 05:03:19;;;;;;;10.27;6.72;;;;;;;13.34;88.23;98100.19;5093691;28;20048;-63
2021/05/13 05:05:51;;;;;;;11.25;7.63;;;;;;;13.41;88.19;98093.94;5093439;28;20048;-64
2021/05/13 05:08:21;;;;;;;11.82;7.03;;;;;;;13.49;88.15;98092.81;5093731;28;20052;-64
2021/05/13 05:10:53;;;;;;;10.35;6.88;;;;;;;13.40;88.44;98094.00;5093637;28;20055;-64
2021/05/13 05:13:23;;;;;;;9.68;6.50;;;;;;;13.44;88.07;98096.41;5093763;28;20515;-63
2021/05/13 05:15:55;;;;;;;9.50;6.53;;;;;;;13.47;88.31;98092.03;5093306;28;20044;-63
2021/05/13 05:18:25;;;;;;;9.65;6.03;;;;;;;13.52;88.15;98092.69;5093972;28;20117;-63
2021/05/13 05:20:57;;;;;;;8.52;5.68;;;;;;;13.56;88.33;98089.13;5093614;28;20044;-63
2021/05/13 05:23:27;;;;;;;8.35;5.85;;;;;;;13.52;88.11;98090.16;5093460;28;20485;-63
2021/05/13 05:26:01;;;;;;;8.68;5.68;;;;;;;13.58;88.30;98087.38;5093506;28;20052;-64
2021/05/13 05:28:34;;;;;;;9.15;6.18;;;;;;;13.55;88.23;98082.34;5104480;28;20040;-64
2021/05/13 05:31:04;;;;;;;7.20;4.97;;;;;;;13.55;88.11;98087.47;5113537;28;20047;-64
2021/05/13 05:33:33;;;;;;;8.63;5.68;;;;;;;13.57;88.13;98070.31;5113726;28;20500;-63
2021/05/13 05:36:05;;;;;;;8.52;5.47;;;;;;;13.62;88.07;98083.78;5113694;28;20039;-63
2021/05/13 05:38:37;;;;;;;10.18;6.47;;;;;;;13.61;88.07;98080.38;5113760;28;20520;-63
2021/05/13 05:41:17;;;;;;;9.35;6.95;;;;;;;13.66;88.21;98090.44;5113579;28;20075;-64
2021/05/13 05:43:45;;;;;;;8.48;5.57;;;;;;;13.59;88.19;98089.00;5113977;28;20442;-63
2021/05/13 05:46:20;;;;;;;7.97;5.55;;;;;;;13.54;88.18;98090.91;5095345;28;20044;-63
2021/05/13 05:48:55;;;;;;;7.95;5.70;;;;;;;13.53;87.99;98094.38;5091820;28;20040;-63
2021/05/13 05:51:24;;;;;;;8.65;5.97;;;;;;;13.50;88.15;98094.50;5093150;28;20052;-63
2021/05/13 05:53:53;;;;;;;8.80;6.05;;;;;;;13.44;88.03;98081.03;5086561;28;20432;-64
2021/05/13 05:56:23;;;;;;;9.23;6.10;;;;;;;13.43;88.16;98093.91;5084783;28;20051;-64
2021/05/13 05:58:52;;;;;;;10.65;7.13;;;;;;;13.39;88.51;98082.91;5087593;28;20592;-64
2021/05/13 06:01:21;;;;;;;8.00;5.73;;;;;;;13.39;88.13;98088.03;5087774;28;20044;-63
2021/05/13 06:03:50;;;;;;;13.02;7.82;;;;;;;13.32;88.32;98091.72;5096841;28;20626;-63
2021/05/13 06:06:22;;;;;;;11.03;6.87;;;;;;;13.32;88.66;98091.72;5096790;28;20052;-63
2021/05/13 06:08:51;;;;;;;9.68;6.40;;;;;;;13.31;88.67;98095.19;5096660;28;20387;-62
2021/05/13 06:11:24;;;;;;;9.25;6.05;;;;;;;13.30;88.73;98095.25;5096416;28;20516;-61
2021/05/13 06:13:56;;;;;;;9.07;6.25;;;;;;;13.27;88.80;98098.75;5096431;28;20516;-64
2021/05/13 06:16:25;;;;;;;8.68;5.78;;;;;;;13.26;88.94;98089.41;5083847;28;20037;-62
2021/05/13 06:19:00;;;;;;;9.30;5.80;;;;;;;13.24;88.42;98098.88;5076162;28;20098;-62
2021/05/13 06:21:29;;;;;;;10.20;5.70;;;;;;;13.18;88.94;98099.09;5072611;28;20043;-62
2021/05/13 06:24:00;;;;;;;9.37;5.77;;;;;;;13.21;89.34;98093.88;5077884;28;20047;-63
2021/05/13 06:26:32;;;;;;;9.93;6.00;;;;;;;13.20;89.31;98092.19;5085116;28;20041;-62
2021/05/13 06:29:04;;;;;;;10.45;5.93;;;;;;;13.24;89.21;98101.44;5084575;28;20045;-63
2021/05/13 06:31:33;;;;;;;;;;;;;;;13.20;89.13;98102.44;5085232;28;20119;-62
2021/05/13 06:34:03;;;;;;;8.40;4.63;;;;;;;13.11;89.29;98100.22;5086168;28;19928;-62
2021/05/13 06:36:32;;;;;;;9.23;5.43;;;;;;;13.10;89.17;98101.09;5085199;28;20044;-62
2021/05/13 06:39:18;;;;;;;8.70;5.75;;;;;;;13.17;89.54;98089.72;5081072;28;20040;-62
2021/05/13 06:41:48;;;;;;;9.53;5.73;;;;;;;13.25;89.61;98089.44;5076067;28;20052;-62
2021/05/13 06:44:17;;;;;;;9.35;6.13;;;;;;;13.33;89.63;98092.56;5075684;28;20045;-62
2021/05/13 06:46:46;;;;;;;8.37;5.27;;;;;;;13.26;89.16;98091.13;5080418;28;20090;-63
2021/05/13 06:49:15;;;;;;;8.02;5.28;;;;;;;13.27;89.27;98091.06;5098732;28;20066;-63
2021/05/13 06:51:44;;;;;;;8.30;5.43;;;;;;;13.33;89.37;98093.41;5098012;28;20043;-63
2021/05/13 06:54:13;;;;;;;6.28;3.45;;;;;;;13.35;89.50;98081.38;5116055;28;20050;-62
2021/05/13 06:56:42;;;;;;;9.63;5.63;;;;;;;13.42;89.25;98087.94;5115907;28;20501;-63
2021/05/13 06:59:12;;;;;;;9.43;5.63;;;;;;;13.49;89.35;98095.38;5115959;28;20130;-63
2021/05/13 07:01:42;;;;;;;9.02;5.68;;;;;;;13.50;89.25;98099.63;5115499;28;20527;-63
2021/05/13 07:04:11;;;;;;;6.72;4.30;;;;;;;13.48;89.36;98089.44;5115785;28;20043;-63
2021/05/13 07:06:40;;;;;;;9.67;5.70;;;;;;;13.46;89.46;98096.31;5115893;28;20044;-63
2021/05/13 07:09:09;;;;;;;;;;;;;;;13.43;89.42;98094.75;5116209;28;20044;-63
2021/05/13 07:11:38;;;;;;;8.05;4.53;;;;;;;13.42;89.12;98093.06;5115532;28;20377;-63
2021/05/13 07:14:07;;;;;;;6.47;4.13;;;;;;;13.34;89.42;98089.94;5115776;28;20040;-63
2021/05/13 07:16:37;;;;;;;7.38;4.45;;;;;;;13.32;89.24;98084.03;5115293;28;20126;-63
2021/05/13 07:19:06;;;;;;;7.57;4.13;;;;;;;13.37;89.45;98084.72;5115635;28;20100;-63
2021/05/13 07:21:35;;;;;;;9.35;5.43;;;;;;;13.44;89.21;98081.03;5115563;28;20393;-63
2021/05/13 07:24:06;;;;;;;10.40;4.97;;;;;;;13.47;89.43;98079.22;5115383;28;20039;-63
2021/05/13 07:26:35;;;;;;;7.18;4.22;;;;;;;13.53;89.29;98086.69;5115645;28;20472;-62
2021/05/13 07:29:05;;;;;;;8.38;4.38;;;;;;;13.54;89.20;98086.63;5115086;28;20055;-63
2021/05/13 07:31:34;;;;;;;7.18;4.43;;;;;;;13.52;89.28;98092.69;5116039;28;20058;-63
2021/05/13 07:34:04;;;;;;;6.65;4.07;;;;;;;13.55;89.27;98098.56;5110331;28;20043;-63
2021/05/13 07:36:33;;;;;;;6.68;4.32;;;;;;;13.50;89.11;98084.25;5103293;28;20044;-64
2021/05/13 07:39:02;;;;;;;7.18;4.63;;;;;;;13.56;89.09;98089.13;5096779;28;20048;-64
2021/05/13 07:41:31;;;;;;;5.77;3.60;;;;;;;13.50;88.93;98091.94;5094789;28;20044;-63
2021/05/13 07:44:00;;;;;;;6.65;4.30;;;;;;;13.59;89.14;98092.41;5094849;28;20063;-64
2021/05/13 07:46:36;;;;;;;5.47;2.97;;;;;;;13.58;89.31;98093.28;5058924;27;20045;-64
2021/05/13 07:49:13;;;;;;;5.68;3.58;;;;;;;13.61;89.23;98092.34;5054136;28;20293;-64
2021/05/13 07:51:43;;;;;;;6.53;4.13;;;;;;;13.69;89.41;98090.34;5052944;28;20410;-64
2021/05/13 07:54:13;;;;;;;6.65;3.92;;;;;;;13.72;89.41;98087.66;5054642;28;20059;-64
2021/05/13 07:56:43;;;;;;;5.67;3.63;;;;;;;13.67;89.06;98097.25;5054973;28;20069;-64
2021/05/13 07:59:12;;;;;;;7.25;3.72;;;;;;;13.60;89.09;98090.69;5054451;28;20136;-64
2021/05/13 08:01:41;;;;;;;4.00;2.72;;;;;;;13.62;89.32;98091.47;5053342;28;20143;-64
2021/05/13 08:04:10;;;;;;;5.40;3.07;;;;;;;13.59;89.10;98092.41;5054007;28;20403;-64
2021/05/13 08:06:40;;;;;;;4.97;3.20;;;;;;;13.56;89.08;98091.69;5053928;28;20640;-65
2021/05/13 08:09:09;;;;;;;4.45;2.78;;;;;;;13.48;89.28;98091.16;5053594;28;20057;-64
2021/05/13 08:11:38;;;;;;;5.17;2.70;;;;;;;13.42;89.30;98093.06;5053536;28;20047;-63
2021/05/13 08:14:07;;;;;;;4.47;2.72;;;;;;;13.42;89.25;98093.06;5051882;28;20098;-65
2021/05/13 08:16:36;;;;;;;2.63;1.67;;;;;;;13.40;89.26;98089.72;5052378;28;20415;-65
2021/05/13 08:19:05;;;;;;;5.07;2.40;;;;;;;13.48;89.54;98096.28;5053316;28;20123;-65
2021/05/13 08:21:36;;;;;;;4.30;2.17;;;;;;;13.52;89.31;98095.28;5053304;28;20509;-64
2021/05/13 08:24:07;;;;;;;3.45;2.10;;;;;;;13.55;89.50;98103.69;5053886;28;20049;-65
2021/05/13 08:26:39;;;;;;;3.58;1.95;;;;;;;13.52;89.24;98085.00;5053706;28;20095;-65
2021/05/13 08:29:11;;;;;;;3.40;2.15;;;;;;;13.58;89.54;98107.88;5054192;28;20407;-65
2021/05/13 08:31:43;;;;;;;4.50;1.88;;;;;;;13.63;89.41;98105.97;5053908;28;20052;-65
2021/05/13 08:34:13;;;;;;;3.45;1.70;;;;;;;13.73;89.51;98107.25;5053681;28;20482;-65
2021/05/13 08:36:41;;;;;;;3.05;1.65;;;;;;;13.89;89.54;98104.03;5053509;28;20055;-66
2021/05/13 08:39:12;;;;;;;2.03;1.30;;;;;;;13.98;89.34;98102.84;5053412;28;20045;-63
2021/05/13 08:41:41;;;;;;;1.90;1.20;;;;;;;13.99;89.34;98099.38;5053399;28;20045;-66
2021/05/13 08:44:10;;;;;;;1.65;1.10;;;;;;;14.01;89.37;98111.25;5053380;28;20060;-63
2021/05/13 08:46:40;;;;;;;2.22;1.30;;;;;;;14.04;88.84;98112.84;5053078;28;20033;-65
2021/05/13 08:49:08;;;;;;;;;;;;;;;14.03;89.01;98111.22;5051354;28;20494;-64
2021/05/13 08:51:38;;;;;;;1.70;1.10;;;;;;;13.96;88.76;98115.72;5053423;28;19920;-64
2021/05/13 08:54:12;;;;;;;1.73;1.00;;;;;;;13.85;88.61;98114.47;5053673;28;20040;-64
2021/05/13 08:56:43;;;;;;;2.17;1.30;;;;;;;13.89;88.36;98118.63;5053666;28;20057;-65
2021/05/13 08:59:16;;;;;;;2.05;1.20;;;;;;;13.93;88.30;98117.59;5053389;28;20053;-64
2021/05/13 09:01:57;;;;;;;1.50;1.08;;;;;;;13.89;88.35;98119.44;5053502;28;20057;-64
2021/05/13 09:04:48;;;;;;;1.40;1.00;;;;;;;13.93;87.97;98117.59;5053418;28;20069;-65
2021/05/13 09:07:21;;;;;;;1.52;1.00;;;;;;;14.03;88.34;98116.34;4992124;28;20050;-64
2021/05/13 09:10:00;;;;;;;1.40;0.90;;;;;;;14.17;87.83;98119.19;4992264;28;20081;-64
2021/05/13 09:12:32;;;;;;;2.05;1.15;;;;;;;14.19;88.03;98116.53;4991950;28;20050;-64
2021/05/13 09:15:07;;;;;;;1.98;1.10;;;;;;;14.30;88.02;98129.81;4992352;28;20058;-64
2021/05/13 09:17:42;;;;;;;1.90;1.10;;;;;;;14.38;87.56;98120.06;4992132;28;20558;-63
2021/05/13 09:20:24;;;;;;;2.45;1.55;;;;;;;14.31;87.16;98132.31;4991872;28;20134;-63
2021/05/13 09:23:13;;;;;;;2.22;1.20;;;;;;;14.32;87.06;98134.00;4992151;28;20446;-63
2021/05/13 09:26:05;;;;;;;1.35;0.95;;;;;;;14.38;86.93;98132.91;4991810;28;20066;-64
2021/05/13 09:28:35;;;;;;;1.98;1.10;;;;;;;14.48;86.71;98129.06;4992465;28;20472;-64
2021/05/13 09:31:07;;;;;;;2.55;1.30;;;;;;;14.59;86.70;98127.72;5004701;28;20056;-64
2021/05/13 09:33:39;;;;;;;1.77;1.10;;;;;;;14.60;86.34;98129.41;5057246;28;20462;-63
2021/05/13 09:36:29;;;;;;;1.65;1.05;;;;;;;14.62;86.20;98124.19;5057063;28;20057;-64
2021/05/13 09:39:01;;;;;;;1.13;0.88;;;;;;;14.75;86.24;98125.34;5046589;28;20060;-64
2021/05/13 09:41:35;;;;;;;1.60;1.00;;;;;;;14.83;85.64;98125.03;5057003;28;20485;-64
2021/05/13 09:44:32;;;;;;;2.45;1.30;;;;;;;14.82;85.22;98128.50;5071941;28;20409;-65
2021/05/13 09:47:17;;;;;;;3.38;1.38;;;;;;;14.78;85.26;98126.03;5056670;28;20053;-65
2021/05/13 09:50:02;;;;;;;2.03;1.27;;;;;;;14.91;85.11;98123.78;5055886;28;20053;-63
2021/05/13 09:52:46;;;;;;;1.90;1.30;;;;;;;15.06;84.57;98122.28;5056637;28;20482;-65
2021/05/13 09:55:24;;;;;;;1.48;0.93;;;;;;;15.09;84.42;98119.59;5056591;28;20400;-65
2021/05/13 09:58:04;;;;;;;1.73;0.90;;;;;;;15.04;84.21;98116.41;5056683;28;20076;-65
2021/05/13 10:00:39;;;;;;;0.90;0.80;;;;;;;15.03;83.83;98120.69;5056357;28;20056;-65
2021/05/13 10:03:11;;;;;;;0.80;0.73;;;;;;;14.98;83.64;98122.63;5056628;28;20049;-66
2021/05/13 10:05:45;;;;;;;1.23;0.80;;;;;;;14.93;83.22;98118.56;5056554;28;20053;-66
2021/05/13 10:08:14;;;;;;;2.40;1.20;;;;;;;14.90;83.67;98118.72;5038715;28;20490;-66
2021/05/13 10:10:48;;;;;;;3.13;0.90;;;;;;;14.87;83.42;98121.44;5056507;28;20053;-66
2021/05/13 10:13:20;;;;;;;1.73;1.10;;;;;;;14.90;83.50;98121.31;5056211;28;20447;-67
2021/05/13 10:15:52;;;;;;;1.20;0.80;;;;;;;14.88;83.09;98125.63;5056385;28;20489;-66
2021/05/13 10:18:26;;;;;;;1.48;1.02;;;;;;;14.98;83.54;98132.06;5071611;28;20049;-67
2021/05/13 10:21:04;;;;;;;1.50;1.10;;;;;;;14.96;83.47;98128.72;5056252;28;20427;-67
2021/05/13 10:23:38;;;;;;;1.80;1.23;;;;;;;14.84;83.08;98116.41;5056034;28;20053;-68
2021/05/13 10:26:41;;;;;;;2.33;1.33;;;;;;;14.76;82.55;98125.28;5056168;28;20136;-67
2021/05/13 10:29:31;;;;;;;1.45;1.15;;;;;;;14.75;82.89;98127.94;5056458;28;20053;-67
2021/05/13 10:32:16;;;;;;;1.77;1.10;;;;;;;14.73;83.25;98120.25;5055910;28;20076;-67
2021/05/13 10:34:50;;;;;;;2.88;1.60;;;;;;;14.72;83.17;98118.63;5055738;28;20398;-67
2021/05/13 10:37:33;;;;;;;2.03;1.33;;;;;;;14.72;83.40;98122.91;5055889;28;20053;-67
2021/05/13 10:40:19;;;;;;;2.72;1.67;;;;;;;14.73;83.53;98122.84;5055837;28;20068;-67
2021/05/13 10:43:03;;;;;;;3.45;1.95;;;;;;;14.80;83.83;98125.16;5055366;28;20069;-68
2021/05/13 10:45:40;;;;;;;3.83;2.20;;;;;;;14.69;83.36;98125.59;5055653;28;20102;-67
2021/05/13 10:48:14;;;;;;;3.95;2.08;;;;;;;14.75;84.14;98123.63;5054747;28;20467;-69
2021/05/13 10:50:50;;;;;;;5.07;2.50;;;;;;;14.87;83.88;98118.84;5055748;28;20064;-66
2021/05/13 10:53:42;;;;;;;3.10;1.63;;;;;;;14.97;84.02;98117.56;5055569;28;20051;-66
2021/05/13 10:56:20;;;;;;;2.85;1.80;;;;;;;14.99;83.55;98118.31;5055608;28;20414;-67
2021/05/13 10:58:57;;;;;;;3.28;1.85;;;;;;;15.03;84.11;98109.56;5055862;28;20102;-67
2021/05/13 11:01:35;;;;;;;2.78;1.65;;;;;;;15.13;83.67;98110.84;5055238;28;20053;-69
2021/05/13 11:04:42;;;;;;;2.28;1.48;;;;;;;15.13;83.74;98113.41;5055420;28;20048;-67
2021/05/13 11:07:31;;;;;;;3.58;1.70;;;;;;;15.06;83.48;98117.16;5051610;28;20383;-67
2021/05/13 11:10:03;;;;;;;2.57;1.30;;;;;;;15.00;83.69;98122.53;5055264;28;20056;-67
2021/05/13 11:12:40;;;;;;;3.25;1.75;;;;;;;14.95;83.79;98121.94;5055365;28;20057;-67
2021/05/13 11:15:21;;;;;;;2.78;1.50;;;;;;;15.03;83.67;98117.28;5054943;28;20048;-68
2021/05/13 11:21:00;;;;;;;4.05;1.70;;;;;;;15.23;83.70;98112.13;5013402;28;20049;-68
2021/05/13 11:23:32;;;;;;;2.33;1.38;;;;;;;15.24;83.13;98116.31;5012966;28;20060;-69
2021/05/13 11:26:02;;;;;;;2.42;1.52;;;;;;;14.82;83.26;98067.69;5012965;28;20057;-68
2021/05/13 11:28:33;;;;;;;2.60;1.60;;;;;;;15.10;83.29;98118.69;5012756;28;20085;-68
2021/05/13 11:31:15;;;;;;;3.22;1.63;;;;;;;15.18;83.48;98117.47;5029660;28;20065;-69
2021/05/13 11:33:47;;;;;;;3.15;1.80;;;;;;;15.28;83.51;98112.75;5012664;28;20046;-69
2021/05/13 11:36:18;;;;;;;2.85;1.73;;;;;;;15.44;82.83;98118.84;5013029;28;20053;-69
2021/05/13 11:38:53;;;;;;;4.68;2.33;;;;;;;15.63;82.90;98117.16;5012527;28;20058;-68
2021/05/13 11:41:22;;;;;;;3.80;2.08;;;;;;;15.77;82.35;98107.03;5012751;28;20066;-69
2021/05/13 11:43:51;;;;;;;2.92;1.65;;;;;;;15.93;82.12;98107.97;5012793;28;20050;-69
2021/05/13 11:46:22;;;;;;;2.78;1.40;;;;;;;15.96;81.93;98110.41;5011998;28;20050;-70
2021/05/13 11:48:52;;;;;;;4.63;1.80;;;;;;;16.02;81.19;98110.13;5012066;28;20153;-70
2021/05/13 11:51:22;;;;;;;2.90;1.67;;;;;;;16.10;80.27;98105.44;5024319;28;20080;-71
2021/05/13 11:53:54;;;;;;;3.38;1.95;;;;;;;16.10;80.62;98110.59;5053161;28;20403;-69
2021/05/13 11:56:26;;;;;;;2.47;1.33;;;;;;;16.28;80.06;98113.19;5054370;28;20049;-70
2021/05/13 11:58:55;;;;;;;2.58;1.30;;;;;;;16.28;79.72;98108.03;5053655;28;20053;-71
2021/05/13 12:01:34;;;;;;;1.95;1.20;;;;;;;16.16;79.55;98113.78;5053805;28;20123;-70
2021/05/13 12:04:10;;;;;;;1.95;1.30;;;;;;;16.06;79.66;98113.38;5053916;28;20128;-70